createdAt,value
2023-05-10T00:00:52.885Z,1.30
2023-05-10T00:03:20.551Z,1.20
2023-05-10T00:05:48.256Z,1.20
2023-05-10T00:08:15.822Z,1.40
2023-05-10T00:10:43.480Z,1.35
2023-05-10T00:13:11.133Z,1.53
2023-05-10T00:15:38.896Z,1.17
2023-05-10T00:18:06.633Z,1.50
2023-05-10T00:20:34.426Z,1.85
2023-05-10T00:23:01.933Z,1.50
2023-05-10T00:25:29.460Z,1.33
2023-05-10T00:27:58.283Z,1.40
2023-05-10T00:30:25.943Z,1.20
2023-05-10T00:32:53.473Z,1.42
2023-05-10T00:35:21.115Z,1.83
2023-05-10T00:37:49.084Z,1.70
2023-05-10T00:40:17.034Z,1.50
2023-05-10T00:42:49.393Z,1.23
2023-05-10T00:45:16.981Z,1.30
2023-05-10T00:47:44.729Z,1.63
2023-05-10T00:50:12.409Z,2.10
2023-05-10T00:52:40.259Z,1.40
2023-05-10T00:55:08.338Z,1.48
2023-05-10T00:57:36.031Z,1.35
2023-05-10T01:00:04.415Z,1.30
2023-05-10T01:02:32.093Z,1.20
2023-05-10T01:05:01.033Z,1.60
2023-05-10T01:07:28.610Z,1.40
2023-05-10T01:09:57.229Z,1.40
2023-05-10T01:12:25.146Z,1.70
2023-05-10T01:14:53.182Z,1.37
2023-05-10T01:17:22.018Z,1.60
2023-05-10T01:19:50.494Z,1.60
2023-05-10T01:22:32.165Z,1.70
2023-05-10T01:25:17.985Z,1.70
2023-05-10T01:28:16.679Z,1.70
2023-05-10T01:31:19.562Z,1.60
2023-05-10T01:33:50.134Z,1.58
2023-05-10T01:36:33.848Z,1.83
2023-05-10T01:39:17.121Z,2.08
2023-05-10T01:41:57.713Z,1.87
2023-05-10T01:44:41.321Z,1.60
2023-05-10T01:47:12.479Z,1.98
2023-05-10T01:49:53.011Z,1.67
2023-05-10T01:52:27.342Z,1.52
2023-05-10T01:55:10.235Z,1.47
2023-05-10T01:57:43.253Z,1.70
2023-05-10T02:00:12.522Z,1.60
2023-05-10T02:02:47.153Z,1.40
2023-05-10T02:05:17.402Z,1.77
2023-05-10T02:07:46.093Z,2.07
2023-05-10T02:10:15.731Z,2.20
2023-05-10T02:12:47.177Z,1.80
2023-05-10T02:15:20.898Z,1.90
2023-05-10T02:17:49.523Z,1.40
2023-05-10T02:20:19.678Z,1.93
2023-05-10T02:22:49.595Z,1.60
2023-05-10T02:25:20.355Z,1.50
2023-05-10T02:27:50.066Z,2.05
2023-05-10T02:30:19.431Z,1.33
2023-05-10T02:32:50.105Z,1.57
2023-05-10T02:35:18.507Z,1.30
2023-05-10T02:37:47.918Z,1.50
2023-05-10T02:40:18.924Z,1.15
2023-05-10T02:42:49.966Z,1.40
2023-05-10T02:45:22.167Z,1.33
2023-05-10T02:47:50.018Z,1.40
2023-05-10T02:50:17.970Z,1.40
2023-05-10T02:52:50.880Z,1.20
2023-05-10T02:55:22.732Z,1.38
2023-05-10T02:57:55.615Z,1.57
2023-05-10T03:00:23.225Z,1.13
2023-05-10T03:02:50.794Z,1.13
2023-05-10T03:05:18.407Z,1.40
2023-05-10T03:07:47.255Z,1.40
2023-05-10T03:10:15.449Z,1.70
2023-05-10T03:13:18.600Z,1.27
2023-05-10T03:16:10.190Z,1.27
2023-05-10T03:18:47.877Z,1.60
2023-05-10T03:21:19.929Z,1.52
2023-05-10T03:23:57.526Z,1.23
2023-05-10T03:26:27.655Z,1.75
2023-05-10T03:29:03.705Z,1.50
2023-05-10T03:31:31.476Z,1.20
2023-05-10T03:33:59.408Z,1.30
2023-05-10T03:36:28.206Z,1.50
2023-05-10T03:38:56.649Z,1.63
2023-05-10T03:41:24.306Z,1.23
2023-05-10T03:43:52.137Z,1.30
2023-05-10T03:46:19.692Z,1.17
2023-05-10T03:48:47.471Z,1.20
2023-05-10T03:51:15.367Z,1.90
2023-05-10T03:53:42.935Z,1.10
2023-05-10T03:56:10.474Z,1.30
2023-05-10T03:58:38.148Z,1.40
2023-05-10T04:01:05.938Z,1.20
2023-05-10T04:03:33.572Z,1.60
2023-05-10T04:06:04.601Z,1.50
2023-05-10T04:08:32.581Z,1.30
2023-05-10T04:11:10.355Z,1.40
2023-05-10T04:13:39.264Z,1.10
2023-05-10T04:16:07.127Z,1.40
2023-05-10T04:18:35.440Z,1.45
2023-05-10T04:21:02.930Z,1.00
2023-05-10T04:23:30.525Z,1.42
2023-05-10T04:26:02.688Z,1.37
2023-05-10T04:28:30.376Z,1.50
2023-05-10T04:31:09.081Z,1.40
2023-05-10T04:33:37.638Z,1.58
2023-05-10T04:36:05.594Z,1.92
2023-05-10T04:38:33.161Z,1.30
2023-05-10T04:41:11.091Z,1.88
2023-05-10T04:43:39.093Z,1.40
2023-05-10T04:46:08.236Z,1.60
2023-05-10T04:48:36.004Z,1.38
2023-05-10T04:51:05.099Z,1.37
2023-05-10T04:53:32.880Z,1.10
2023-05-10T04:56:00.484Z,1.27
2023-05-10T04:58:28.160Z,1.65
2023-05-10T05:00:55.694Z,1.38
2023-05-10T05:03:23.533Z,1.47
2023-05-10T05:05:51.135Z,1.65
2023-05-10T05:08:18.785Z,1.50
2023-05-10T05:10:46.375Z,1.60
2023-05-10T05:13:14.071Z,1.60
2023-05-10T05:15:41.880Z,1.87
2023-05-10T05:18:09.593Z,1.40
2023-05-10T05:20:37.427Z,1.60
2023-05-10T05:23:05.101Z,1.20
2023-05-10T05:25:32.717Z,1.60
2023-05-10T05:28:00.457Z,1.57
2023-05-10T05:30:28.026Z,1.50
2023-05-10T05:32:55.873Z,1.40
2023-05-10T05:37:51.284Z,1.63
2023-05-10T05:40:18.921Z,1.70
2023-05-10T05:42:46.500Z,1.73
2023-05-10T05:45:14.459Z,1.60
2023-05-10T05:47:42.386Z,2.03
2023-05-10T05:50:10.661Z,1.90
2023-05-10T05:52:38.294Z,1.70
2023-05-10T05:55:06.177Z,2.00
2023-05-10T05:57:33.857Z,1.75
2023-05-10T06:00:01.445Z,1.80
2023-05-10T06:02:29.197Z,1.70
2023-05-10T06:04:56.929Z,1.77
2023-05-10T06:07:24.496Z,1.67
2023-05-10T06:09:51.990Z,1.80
2023-05-10T06:12:19.581Z,1.90
2023-05-10T06:14:47.215Z,1.80
2023-05-10T06:17:14.841Z,1.70
2023-05-10T06:19:42.396Z,1.83
2023-05-10T06:22:10.106Z,1.90
2023-05-10T06:24:37.687Z,1.95
2023-05-10T06:27:05.640Z,1.67
2023-05-10T06:29:33.347Z,2.33
2023-05-10T06:32:00.980Z,1.90
2023-05-10T06:34:28.512Z,2.00
2023-05-10T06:36:56.164Z,1.98
2023-05-10T06:39:23.750Z,2.10
2023-05-10T06:41:51.444Z,1.80
2023-05-10T06:44:20.442Z,1.90
2023-05-10T06:46:48.081Z,2.05
2023-05-10T06:49:15.738Z,2.38
2023-05-10T06:51:43.300Z,1.88
2023-05-10T06:54:10.867Z,2.17
2023-05-10T06:56:38.460Z,2.40
2023-05-10T06:59:06.095Z,2.47
2023-05-10T07:01:33.733Z,2.10
2023-05-10T07:04:01.321Z,1.95
2023-05-10T07:06:33.429Z,2.10
2023-05-10T07:09:01.966Z,2.35
2023-05-10T07:11:29.728Z,2.05
2023-05-10T07:13:57.373Z,2.13
2023-05-10T07:16:24.989Z,2.20
2023-05-10T07:18:54.119Z,2.40
2023-05-10T07:21:22.082Z,2.50
2023-05-10T07:23:49.708Z,2.60
2023-05-10T07:26:17.352Z,2.50
2023-05-10T07:28:45.184Z,2.50
2023-05-10T07:31:13.176Z,2.40
2023-05-10T07:33:41.115Z,2.28
2023-05-10T07:36:08.823Z,2.78
2023-05-10T07:38:37.496Z,2.13
2023-05-10T07:41:06.142Z,2.47
2023-05-10T07:43:33.640Z,2.30
2023-05-10T07:46:01.352Z,2.00
2023-05-10T07:48:29.095Z,2.20
2023-05-10T07:50:56.708Z,2.00
2023-05-10T07:53:24.320Z,2.28
2023-05-10T07:55:52.843Z,2.10
2023-05-10T07:58:20.572Z,2.58
2023-05-10T08:00:48.236Z,2.50
2023-05-10T08:03:16.272Z,2.75
2023-05-10T08:05:44.039Z,2.33
2023-05-10T08:08:11.621Z,2.00
2023-05-10T08:10:39.315Z,1.90
2023-05-10T08:13:07.210Z,2.40
2023-05-10T08:15:34.882Z,2.50
2023-05-10T08:18:02.383Z,2.15
2023-05-10T08:20:30.069Z,2.10
2023-05-10T08:22:57.628Z,2.42
2023-05-10T08:25:25.410Z,1.90
2023-05-10T08:27:52.945Z,2.00
2023-05-10T08:30:20.663Z,1.73
2023-05-10T08:32:48.309Z,2.00
2023-05-10T08:35:17.206Z,3.40
2023-05-10T08:37:45.555Z,3.90
2023-05-10T08:40:14.652Z,3.17
2023-05-10T08:42:52.027Z,3.88
2023-05-10T08:45:21.045Z,3.13
2023-05-10T08:47:48.930Z,2.05
2023-05-10T08:50:21.208Z,1.83
2023-05-10T08:52:52.845Z,1.63
2023-05-10T08:55:20.568Z,1.70
2023-05-10T08:57:48.337Z,1.00
2023-05-10T09:00:16.506Z,0.90
2023-05-10T09:02:45.287Z,0.80
2023-05-10T09:05:13.667Z,0.80
2023-05-10T09:07:41.183Z,0.98
2023-05-10T09:10:10.515Z,0.67
2023-05-10T09:12:38.546Z,0.50
2023-05-10T09:15:08.118Z,0.73
2023-05-10T09:17:36.124Z,0.60
2023-05-10T09:20:05.416Z,0.50
2023-05-10T09:22:33.138Z,0.53
2023-05-10T09:25:13.704Z,0.60
2023-05-10T09:27:42.808Z,0.52
2023-05-10T09:30:10.732Z,0.52
2023-05-10T09:32:42.592Z,1.02
2023-05-10T09:35:16.331Z,0.50
2023-05-10T09:37:47.627Z,0.57
2023-05-10T09:40:18.397Z,0.60
2023-05-10T09:42:58.010Z,0.65
2023-05-10T09:45:27.301Z,0.57
2023-05-10T09:47:55.420Z,0.53
2023-05-10T09:50:24.242Z,0.80
2023-05-10T09:53:04.283Z,0.80
2023-05-10T09:55:50.289Z,0.50
2023-05-10T09:58:17.851Z,0.70
2023-05-10T10:00:48.886Z,0.60
2023-05-10T10:03:20.376Z,0.63
2023-05-10T10:05:50.053Z,0.50
2023-05-10T10:08:18.424Z,0.60
2023-05-10T10:10:47.526Z,0.60
2023-05-10T10:13:16.218Z,0.50
2023-05-10T10:15:45.380Z,0.50
2023-05-10T10:18:16.783Z,0.50
2023-05-10T10:20:44.786Z,0.63
2023-05-10T10:23:12.374Z,0.50
2023-05-10T10:25:40.519Z,0.50
2023-05-10T10:28:27.537Z,0.70
2023-05-10T10:31:01.245Z,0.55
2023-05-10T10:33:49.254Z,0.50
2023-05-10T10:36:17.121Z,0.60
2023-05-10T10:38:47.697Z,0.50
2023-05-10T10:41:32.347Z,0.70
2023-05-10T10:44:27.562Z,0.40
2023-05-10T10:47:12.861Z,0.77
2023-05-10T10:49:46.895Z,0.50
2023-05-10T10:52:22.939Z,0.53
2023-05-10T10:54:59.386Z,0.30
2023-05-10T10:57:27.776Z,0.38
2023-05-10T11:00:24.445Z,0.40
2023-05-10T11:03:19.623Z,0.30
2023-05-10T11:05:52.369Z,0.50
2023-05-10T11:08:27.850Z,0.70
2023-05-10T11:11:01.401Z,0.60
2023-05-10T11:13:31.430Z,0.55
2023-05-10T11:16:00.162Z,0.60
2023-05-10T11:18:32.623Z,0.70
2023-05-10T11:21:06.110Z,0.70
2023-05-10T11:23:48.588Z,0.65
2023-05-10T11:26:16.419Z,0.50
2023-05-10T11:28:48.796Z,0.50
2023-05-10T11:31:18.127Z,0.57
2023-05-10T11:33:57.210Z,0.65
2023-05-10T11:36:29.889Z,0.80
2023-05-10T11:38:58.164Z,0.70
2023-05-10T11:41:27.799Z,0.77
2023-05-10T11:43:56.552Z,0.40
2023-05-10T11:46:26.496Z,0.52
2023-05-10T11:48:56.915Z,0.60
2023-05-10T11:51:25.980Z,0.47
2023-05-10T11:53:58.242Z,0.50
2023-05-10T11:56:27.674Z,0.60
2023-05-10T11:58:57.340Z,0.50
2023-05-10T12:01:28.492Z,0.50
2023-05-10T12:04:01.590Z,0.30
2023-05-10T12:06:38.243Z,0.60
2023-05-10T12:09:09.607Z,0.40
2023-05-10T12:11:44.304Z,0.30
2023-05-10T12:14:12.402Z,0.30
2023-05-10T12:16:40.076Z,0.40
2023-05-10T12:19:07.724Z,0.40
2023-05-10T12:21:35.666Z,0.30
2023-05-10T12:24:04.869Z,0.40
2023-05-10T12:26:33.495Z,0.32
2023-05-10T12:29:14.828Z,0.32
2023-05-10T12:31:59.069Z,0.55
2023-05-10T12:34:35.020Z,0.30
2023-05-10T12:37:04.170Z,0.30
2023-05-10T12:39:42.512Z,0.40
2023-05-10T12:42:11.024Z,0.32
2023-05-10T12:44:38.730Z,0.43
2023-05-10T12:47:07.016Z,0.30
2023-05-10T12:49:35.400Z,0.30
2023-05-10T12:52:03.104Z,0.20
2023-05-10T12:54:30.711Z,0.25
2023-05-10T12:56:58.360Z,0.30
2023-05-10T12:59:25.863Z,0.20
2023-05-10T13:01:53.379Z,0.30
2023-05-10T13:04:21.301Z,0.30
2023-05-10T13:06:48.810Z,0.40
2023-05-10T13:09:16.491Z,0.40
2023-05-10T13:11:44.178Z,0.20
2023-05-10T13:14:11.855Z,0.30
2023-05-10T13:16:39.425Z,0.40
2023-05-10T13:19:07.172Z,0.35
2023-05-10T13:21:34.912Z,0.30
2023-05-10T13:24:03.019Z,0.47
2023-05-10T13:26:30.952Z,0.50
2023-05-10T13:28:58.448Z,0.60
2023-05-10T13:31:26.206Z,0.45
2023-05-10T13:33:53.857Z,0.35
2023-05-10T13:36:21.440Z,0.57
2023-05-10T13:38:49.337Z,0.40
2023-05-10T13:41:16.909Z,0.30
2023-05-10T13:43:44.767Z,0.30
2023-05-10T13:46:12.637Z,0.30
2023-05-10T13:48:40.232Z,0.60
2023-05-10T13:51:07.992Z,0.70
2023-05-10T13:53:35.515Z,0.80
2023-05-10T13:56:04.289Z,0.50
2023-05-10T13:58:31.823Z,0.50
2023-05-10T14:00:59.404Z,0.43
2023-05-10T14:03:27.131Z,0.50
2023-05-10T14:05:54.755Z,0.40
2023-05-10T14:08:22.684Z,0.50
2023-05-10T14:10:51.767Z,0.43
2023-05-10T14:13:19.472Z,0.30
2023-05-10T14:15:47.205Z,0.30
2023-05-10T14:18:15.368Z,0.30
2023-05-10T14:20:43.058Z,0.40
2023-05-10T14:23:11.908Z,0.35
2023-05-10T14:25:42.867Z,0.43
2023-05-10T14:28:10.846Z,0.40
2023-05-10T14:30:38.453Z,0.50
2023-05-10T14:33:06.518Z,0.38
2023-05-10T14:35:34.194Z,0.50
2023-05-10T14:38:04.511Z,0.40
2023-05-10T14:40:32.268Z,0.38
2023-05-10T14:42:59.904Z,0.40
2023-05-10T14:45:27.592Z,0.45
2023-05-10T14:47:55.199Z,0.40
2023-05-10T14:50:35.717Z,0.40
2023-05-10T14:53:04.521Z,0.40
2023-05-10T14:55:32.080Z,0.50
2023-05-10T14:57:59.761Z,0.50
2023-05-10T15:00:31.697Z,0.50
2023-05-10T15:02:59.835Z,0.30
2023-05-10T15:05:27.790Z,0.55
2023-05-10T15:07:55.955Z,0.40
2023-05-10T15:10:23.542Z,0.50
2023-05-10T15:12:51.926Z,0.50
2023-05-10T15:15:19.495Z,0.40
2023-05-10T15:17:48.594Z,0.40
2023-05-10T15:20:16.200Z,0.50
2023-05-10T15:22:43.986Z,0.40
2023-05-10T15:25:11.559Z,0.40
2023-05-10T15:27:39.175Z,0.40
2023-05-10T15:30:07.527Z,0.38
2023-05-10T15:32:35.144Z,0.28
2023-05-10T15:35:03.553Z,0.20
2023-05-10T15:37:31.313Z,0.20
2023-05-10T15:40:04.570Z,0.10
2023-05-10T15:42:34.015Z,0.30
2023-05-10T15:45:01.714Z,0.30
2023-05-10T15:47:31.315Z,0.20
2023-05-10T15:49:59.243Z,0.30
2023-05-10T15:52:27.432Z,0.40
2023-05-10T15:54:55.016Z,0.40
2023-05-10T15:57:22.703Z,0.40
2023-05-10T15:59:50.911Z,0.30
2023-05-10T16:02:19.485Z,0.40
2023-05-10T16:04:47.629Z,0.50
2023-05-10T16:07:15.171Z,0.52
2023-05-10T16:09:42.775Z,0.47
2023-05-10T16:12:10.448Z,0.63
2023-05-10T16:14:38.011Z,0.50
2023-05-10T16:17:06.017Z,0.50
2023-05-10T16:19:34.293Z,0.50
2023-05-10T16:22:01.901Z,0.30
2023-05-10T16:24:30.296Z,0.52
2023-05-10T16:26:57.842Z,0.50
2023-05-10T16:29:26.293Z,0.37
2023-05-10T16:31:54.095Z,0.50
2023-05-10T16:34:24.442Z,0.55
2023-05-10T16:36:52.203Z,0.40
2023-05-10T16:39:19.897Z,0.40
2023-05-10T16:41:47.557Z,0.30
2023-05-10T16:44:15.116Z,0.50
2023-05-10T16:46:43.811Z,0.60
2023-05-10T16:49:12.491Z,0.60
2023-05-10T16:51:40.986Z,0.60
2023-05-10T16:54:08.761Z,0.47
2023-05-10T16:56:36.454Z,0.60
2023-05-10T16:59:04.019Z,0.52
2023-05-10T17:01:31.873Z,0.70
2023-05-10T17:03:59.522Z,0.40
2023-05-10T17:06:27.331Z,0.80
2023-05-10T17:08:54.916Z,0.73
2023-05-10T17:11:22.693Z,0.40
2023-05-10T17:13:52.048Z,0.43
2023-05-10T17:16:20.999Z,0.50
2023-05-10T17:18:48.787Z,0.70
2023-05-10T17:21:16.890Z,0.60
2023-05-10T17:23:44.403Z,0.70
2023-05-10T17:26:12.000Z,0.55
2023-05-10T17:28:39.551Z,0.68
2023-05-10T17:31:07.718Z,0.60
2023-05-10T17:33:35.332Z,0.70
2023-05-10T17:36:02.944Z,0.77
2023-05-10T17:38:30.582Z,0.50
2023-05-10T17:40:58.274Z,0.60
2023-05-10T17:43:26.214Z,0.50
2023-05-10T17:45:53.973Z,0.82
2023-05-10T17:48:22.112Z,0.77
2023-05-10T17:50:51.078Z,0.52
2023-05-10T17:53:19.464Z,0.68
2023-05-10T17:55:47.156Z,0.57
2023-05-10T17:58:16.250Z,0.50
2023-05-10T18:00:43.798Z,0.60
2023-05-10T18:03:11.509Z,0.70
2023-05-10T18:05:39.878Z,0.70
2023-05-10T18:08:07.722Z,0.77
2023-05-10T18:10:38.168Z,0.68
2023-05-10T18:13:08.781Z,0.98
2023-05-10T18:15:37.813Z,0.77
2023-05-10T18:18:05.520Z,0.70
2023-05-10T18:20:33.335Z,0.83
2023-05-10T18:23:00.976Z,0.77
2023-05-10T18:25:28.981Z,0.80
2023-05-10T18:27:56.759Z,0.80
2023-05-10T18:30:24.424Z,1.73
2023-05-10T18:32:52.269Z,1.13
2023-05-10T18:35:20.330Z,0.85
2023-05-10T18:37:48.756Z,1.00
2023-05-10T18:40:17.574Z,0.90
2023-05-10T18:42:46.732Z,0.95
2023-05-10T18:45:14.844Z,0.80
2023-05-10T18:47:43.027Z,0.93
2023-05-10T18:50:11.316Z,1.35
2023-05-10T18:52:39.010Z,1.10
2023-05-10T18:55:07.296Z,0.80
2023-05-10T18:57:41.212Z,1.17
2023-05-10T19:00:11.104Z,0.65
2023-05-10T19:02:40.182Z,1.00
2023-05-10T19:05:08.405Z,1.00
2023-05-10T19:07:36.236Z,0.70
2023-05-10T19:10:04.123Z,1.00
2023-05-10T19:12:31.731Z,1.08
2023-05-10T19:14:59.255Z,2.00
2023-05-10T19:17:26.941Z,1.40
2023-05-10T19:19:55.879Z,0.90
2023-05-10T19:22:36.085Z,0.87
2023-05-10T19:25:13.194Z,0.90
2023-05-10T19:27:40.805Z,1.05
2023-05-10T19:30:08.843Z,0.90
2023-05-10T19:32:36.830Z,0.77
2023-05-10T19:35:04.990Z,1.03
2023-05-10T19:37:32.597Z,1.00
2023-05-10T19:40:00.271Z,1.00
2023-05-10T19:42:28.105Z,0.90
2023-05-10T19:44:55.600Z,1.00
2023-05-10T19:47:23.247Z,1.10
2023-05-10T19:49:50.820Z,1.00
2023-05-10T19:52:18.941Z,1.02
2023-05-10T19:54:46.501Z,1.10
2023-05-10T19:57:14.185Z,1.38
2023-05-10T19:59:41.745Z,0.80
2023-05-10T20:02:09.343Z,1.00
2023-05-10T20:04:36.898Z,1.10
2023-05-10T20:07:04.446Z,0.70
2023-05-10T20:09:31.996Z,1.00
2023-05-10T20:11:59.698Z,1.50
2023-05-10T20:14:27.282Z,0.95
2023-05-10T20:16:54.960Z,1.30
2023-05-10T20:19:22.729Z,1.02
2023-05-10T20:21:50.556Z,1.05
2023-05-10T20:24:21.232Z,0.77
2023-05-10T20:26:48.844Z,1.17
2023-05-10T20:29:16.454Z,1.27
2023-05-10T20:31:44.114Z,1.00
2023-05-10T20:34:11.599Z,1.20
2023-05-10T20:36:39.522Z,0.90
2023-05-10T20:39:07.276Z,1.08
2023-05-10T20:41:34.823Z,0.90
2023-05-10T20:44:02.367Z,1.35
2023-05-10T20:46:30.570Z,1.00
2023-05-10T20:48:58.263Z,0.93
2023-05-10T20:51:26.189Z,1.10
2023-05-10T20:53:53.779Z,1.40
2023-05-10T20:56:21.499Z,0.80
2023-05-10T20:58:48.999Z,0.90
2023-05-10T21:01:16.587Z,0.90
2023-05-10T21:03:44.262Z,0.90
2023-05-10T21:06:11.795Z,1.27
2023-05-10T21:08:39.390Z,0.75
2023-05-10T21:11:07.104Z,0.98
2023-05-10T21:13:34.814Z,0.80
2023-05-10T21:16:02.527Z,0.90
2023-05-10T21:18:30.192Z,0.90
2023-05-10T21:20:58.570Z,0.88
2023-05-10T21:23:26.270Z,0.75
2023-05-10T21:25:53.926Z,0.50
2023-05-10T21:28:21.714Z,0.82
2023-05-10T21:30:49.933Z,0.60
2023-05-10T21:33:17.484Z,1.10
2023-05-10T21:35:45.070Z,0.75
2023-05-10T21:38:12.839Z,0.60
2023-05-10T21:40:40.742Z,0.82
2023-05-10T21:43:08.421Z,0.63
2023-05-10T21:45:36.599Z,0.80
2023-05-10T21:48:04.388Z,0.70
2023-05-10T21:50:32.099Z,1.40
2023-05-10T21:52:59.632Z,0.85
2023-05-10T21:55:28.098Z,0.77
2023-05-10T21:57:55.914Z,1.02
2023-05-10T22:00:23.885Z,0.88
2023-05-10T22:02:51.527Z,1.17
2023-05-10T22:05:19.260Z,0.77
2023-05-10T22:07:47.183Z,1.13
2023-05-10T22:10:14.758Z,1.00
2023-05-10T22:12:42.293Z,1.00
2023-05-10T22:15:11.013Z,0.90
2023-05-10T22:17:40.110Z,1.00
2023-05-10T22:20:08.925Z,1.10
2023-05-10T22:22:36.943Z,1.20
2023-05-10T22:25:07.348Z,0.90
2023-05-10T22:27:35.335Z,1.40
2023-05-10T22:30:03.978Z,0.90
2023-05-10T22:32:34.702Z,1.45
2023-05-10T22:35:02.523Z,1.88
2023-05-10T22:37:30.555Z,1.65
2023-05-10T22:39:58.155Z,1.20
2023-05-10T22:42:25.692Z,1.27
2023-05-10T22:44:53.403Z,1.40
2023-05-10T22:47:20.971Z,1.55
2023-05-10T22:49:48.549Z,1.25
2023-05-10T22:52:16.202Z,1.27
2023-05-10T22:54:44.390Z,1.30
2023-05-10T22:57:12.376Z,1.38
2023-05-10T22:59:39.954Z,1.45
2023-05-10T23:02:07.532Z,1.42
2023-05-10T23:04:35.262Z,1.60
2023-05-10T23:07:02.924Z,1.20
2023-05-10T23:09:30.428Z,1.40
2023-05-10T23:11:58.019Z,1.30
2023-05-10T23:14:25.689Z,1.13
2023-05-10T23:16:53.215Z,1.20
2023-05-10T23:19:21.050Z,1.15
2023-05-10T23:21:49.141Z,1.30
2023-05-10T23:24:16.855Z,1.20
2023-05-10T23:26:46.364Z,1.10
2023-05-10T23:29:13.962Z,1.30
2023-05-10T23:31:45.552Z,1.02
2023-05-10T23:34:13.604Z,1.05
2023-05-10T23:36:41.091Z,1.55
2023-05-10T23:39:08.858Z,1.42
2023-05-10T23:41:36.765Z,1.30
2023-05-10T23:44:04.536Z,3.58
2023-05-10T23:46:32.102Z,3.85
2023-05-10T23:48:59.647Z,2.67
2023-05-10T23:51:28.176Z,2.50
2023-05-10T23:53:56.068Z,1.70
2023-05-10T23:56:23.736Z,1.88
2023-05-10T23:58:51.402Z,2.10
